EW4696 Weather Reports


Display with metric or nautical units.
time (UTC)temp
F
wind
direction
speed
MPH
gust
MPH
rain 1hr
in
rain 24hr
in
rain mn
in
humidity
%
barometer
mb
20210517104504 71 0 0.0 1.0 0.00 0.32 0.00 89 1011.7
20210517103005 71 0 0.0 2.0 0.00 0.32 0.00 89 1011.6
20210517101504 72 0 0.0 4.0 0.00 0.32 0.00 89 1011.5
20210517100004 72 0 0.0 3.0 0.00 0.32 0.00 89 1011.6
20210517094505 71 0 0.0 3.0 0.00 0.32 0.00 89 1011.7
20210517093004 71 195 1.0 6.0 0.00 0.32 0.00 89 1011.9
20210517091504 71 0 0.0 3.0 0.00 0.33 0.00 89 1012.0
20210517090005 71 0 0.0 6.0 0.00 0.37 0.00 89 1012.0
20210517084505 71 0 0.0 2.0 0.00 0.37 0.00 89 1012.3
20210517083005 71 0 0.0 2.0 0.00 0.37 0.00 89 1012.3
20210517081505 71 0 0.0 4.0 0.00 0.37 0.00 89 1012.6
20210517080004 71 0 0.0 2.0 0.00 0.37 0.00 89 1012.7
20210517074504 71 0 0.0 4.0 0.00 0.37 0.00 89 1012.7
20210517073004 71 0 0.0 3.0 0.00 0.37 0.00 88 1013.0
20210517071504 71 0 0.0 4.0 0.00 0.37 0.00 88 1013.2
20210517070004 71 0 0.0 4.0 0.00 0.38 0.00 87 1013.2
20210517064505 71 0 0.0 5.0 0.00 0.38 0.00 86 1013.6
20210517063004 71 0 0.0 3.0 0.00 0.38 0.00 86 1013.8
20210517061506 72 192 1.0 5.0 0.00 0.38 0.00 85 1013.8
20210517060004 72 0 0.0 5.0 0.00 0.38 0.00 85 1013.7
20210517054504 72 171 1.0 5.0 0.00 0.38 0.00 84 1013.6
20210517053005 72 0 0.0 5.0 0.00 0.38 0.00 84 1013.5
20210517051505 72 0 0.0 5.0 0.00 0.38 0.00 84 1013.3
20210517050005 71 0 0.0 4.0 0.00 0.38 0.00 84 1013.6
20210517044505 71 0 0.0 4.0 0.00 0.38 0.38 83 1013.8
20210517043004 71 0 0.0 3.0 0.00 0.38 0.38 83 1013.7
20210517041505 71 0 0.0 4.0 0.00 0.38 0.38 83 1013.9
20210517040006 71 0 0.0 2.0 0.00 0.38 0.38 83 1014.1
20210517034507 71 0 0.0 2.0 0.00 0.38 0.38 84 1014.1
20210517033006 70 0 0.0 1.0 0.00 0.38 0.38 84 1013.8
20210517031506 70 0 0.0 1.0 0.00 0.38 0.38 83 1013.6
20210517030005 70 0 0.0 1.0 0.00 0.38 0.38 83 1013.3
20210517024506 71 0 0.0 0.0 0.00 0.38 0.38 82 1013.3
20210517023005 71 0 0.0 1.0 0.00 0.38 0.38 82 1013.0
20210517021506 72 0 0.0 0.0 0.00 0.38 0.38 81 1013.0
20210517020006 72 0 0.0 1.0 0.00 0.38 0.38 81 1012.8
20210517014505 72 0 0.0 1.0 0.00 0.38 0.38 81 1012.6
20210517013006 72 0 0.0 1.0 0.00 0.38 0.38 80 1012.6
20210517011506 73 0 0.0 2.0 0.00 0.38 0.38 79 1012.7
20210517010006 73 0 0.0 4.0 0.00 0.38 0.38 78 1012.7
20210517004505 74 0 0.0 1.0 0.00 0.38 0.38 78 1012.8
20210517003006 75 0 0.0 4.0 0.00 0.38 0.38 77 1012.8
20210517001506 75 0 0.0 4.0 0.00 0.38 0.38 77 1012.9
20210517000006 75 201 1.0 7.0 0.00 0.38 0.38 77 1012.8
20210516234506 76 190 1.0 5.0 0.00 0.38 0.38 76 1013.0
20210516233006 77 201 2.0 6.0 0.00 0.38 0.38 75 1013.2
20210516231507 77 193 1.0 5.0 0.00 0.38 0.38 75 1013.5
20210516230006 78 175 1.0 5.0 0.00 0.38 0.38 75 1013.4
20210516224506 78 193 2.0 5.0 0.00 0.38 0.38 74 1013.4
20210516223006 79 186 1.0 5.0 0.00 0.38 0.38 75 1013.5
20210516221505 78 198 2.0 6.0 0.00 0.38 0.38 74 1013.6
20210516220006 79 166 1.0 7.0 0.00 0.38 0.38 75 1013.6
20210516214506 79 104 1.0 6.0 0.00 0.38 0.38 73 1013.6
20210516213005 79 188 1.0 6.0 0.00 0.38 0.38 73 1013.8
20210516211505 78 184 1.0 5.0 0.00 0.38 0.38 73 1013.8
20210516210006 78 197 1.0 7.0 0.00 0.38 0.38 74 1014.0
20210516204506 76 185 1.0 7.0 0.00 0.38 0.38 78 1014.2
20210516203006 76 196 2.0 9.0 0.00 0.38 0.38 79 1014.6
20210516201506 74 196 1.0 8.0 0.00 0.38 0.38 85 1014.7
20210516200005 73 151 1.0 5.0 0.00 0.38 0.38 86 1015.1
20210516194505 73 176 1.0 5.0 0.00 0.38 0.38 90 1015.1
20210516193006 72 0 0.0 7.0 0.00 0.38 0.38 91 1015.2
20210516191505 70 0 0.0 2.0 0.00 0.38 0.38 91 1015.3
20210516190006 70 173 1.0 5.0 0.00 0.38 0.38 91 1015.5
20210516184507 71 0 0.0 4.0 0.01 0.38 0.38 91 1015.5
20210516183005 70 0 0.0 2.0 0.02 0.38 0.38 91 1015.6
20210516181507 71 0 0.0 3.0 0.05 0.38 0.38 90 1015.7
20210516180005 70 171 1.0 6.0 0.07 0.38 0.38 91 1015.8
20210516174506 71 203 1.0 6.0 0.08 0.37 0.37 90 1016.0
20210516173006 72 195 1.0 7.0 0.18 0.36 0.36 90 1016.0
20210516171505 73 0 0.0 4.0 0.23 0.33 0.33 91 1015.6
20210516170005 72 0 0.0 3.0 0.23 0.31 0.31 91 1015.8
20210516164506 72 0 0.0 2.0 0.20 0.28 0.28 90 1015.9
20210516163006 72 0 0.0 3.0 0.09 0.17 0.17 90 1015.9
20210516161505 72 0 0.0 2.0 0.02 0.10 0.10 91 1015.9
20210516160005 72 0 0.0 1.0 0.00 0.08 0.08 90 1015.8
20210516154506 71 0 0.0 5.0 0.00 0.08 0.08 91 1015.8
20210516153005 72 189 1.0 6.0 0.00 0.08 0.08 91 1016.2
20210516151505 72 0 0.0 5.0 0.00 0.08 0.08 91 1016.4
20210516150006 71 193 1.0 6.0 0.00 0.08 0.08 91 1016.6
20210516144506 71 193 1.0 4.0 0.00 0.08 0.08 91 1016.5
20210516143005 71 0 0.0 5.0 0.00 0.08 0.08 91 1016.8
20210516141506 70 0 0.0 5.0 0.01 0.08 0.08 91 1016.6
20210516140005 70 194 1.0 5.0 0.01 0.08 0.08 91 1016.3
20210516134505 70 201 1.0 5.0 0.01 0.08 0.08 91 1016.0
20210516133006 70 179 1.0 7.0 0.01 0.08 0.08 91 1015.7
20210516131506 69 195 1.0 6.0 0.00 0.07 0.07 91 1015.5
20210516130005 69 172 1.0 6.0 0.00 0.07 0.07 91 1014.7
20210516124505 69 178 1.0 4.0 0.00 0.07 0.07 91 1015.2
20210516123006 69 0 0.0 6.0 0.00 0.07 0.07 91 1015.5
20210516121505 69 208 1.0 6.0 0.00 0.07 0.07 91 1015.3
20210516120005 69 0 0.0 4.0 0.01 0.07 0.07 91 1015.5
20210516114506 69 0 0.0 3.0 0.01 0.07 0.07 91 1015.5
20210516113005 69 0 0.0 4.0 0.01 0.07 0.07 91 1015.4
20210516111505 69 208 1.0 5.0 0.01 0.07 0.07 91 1015.4
20210516110006 69 0 0.0 3.0 0.00 0.06 0.06 91 1015.6